This is the latest recevied weather packets stored in our database for station/object NR6G-5. If no packets are shown the sender has not sent any weather packets the latest 10 day(s).
| Time | Temp. | Humidity | Pressure | Rain* | Wind** | Luminosity | Snow |
|---|---|---|---|---|---|---|---|
| 1778101697 | 23.33° C | 47% | 1016.9 hPa | 0 mm | - | - | - |
| 1778101097 | 22.78° C | 49% | 1017 hPa | 0 mm | - | - | - |
| 1778100197 | 22.78° C | 50% | 1017 hPa | 0 mm | - | - | - |
| 1778099897 | 22.78° C | 49% | 1017.1 hPa | 0 mm | - | - | - |
| 1778099297 | 22.78° C | 49% | 1017.2 hPa | 0 mm | - | - | - |
| 1778096376 | 22.22° C | 51% | 1017.9 hPa | 0 mm | - | - | - |
| 1778096076 | 21.67° C | 52% | 1017.9 hPa | 0 mm | - | - | - |
| 1778095779 | 21.67° C | 52% | 1018.1 hPa | 0 mm | - | - | - |
| 1778094876 | 21.11° C | 54% | 1018.3 hPa | 0 mm | - | - | - |
| 1778094576 | 21.11° C | 55% | 1018.4 hPa | 0 mm | - | - | - |
| 1778090675 | 18.89° C | 65% | 1019.2 hPa | 0 mm | - | - | - |
| 1778090371 | 18.89° C | 64% | 1019.2 hPa | 0 mm | - | - | - |
| 1778090070 | 18.89° C | 66% | 1019.2 hPa | 0 mm | - | - | - |
| 1778089471 | 18.89° C | 68% | 1019.3 hPa | 0 mm | - | - | - |
| 1778088570 | 18.33° C | 68% | 1019.4 hPa | 0 mm | - | - | - |
| 1778087670 | 17.78° C | 70% | 1019.5 hPa | 0 mm | - | - | - |
| 1778087070 | 17.22° C | 70% | 1019.6 hPa | 0 mm | - | - | - |
| 1778085270 | 16.67° C | 72% | 1019.5 hPa | 0 mm | - | - | - |
| 1778084971 | 16.67° C | 73% | 1019.6 hPa | 0 mm | - | - | - |
| 1778084371 | 16.67° C | 72% | 1019.6 hPa | 0 mm | - | - | - |
| 1778084070 | 16.67° C | 72% | 1019.6 hPa | 0 mm | - | - | - |
| 1778081956 | 15.56° C | 75% | 1019.8 hPa | 0 mm | - | - | - |
| 1778078130 | 14.44° C | 78% | 1019.5 hPa | 0 mm | - | - | - |
| 1778077828 | 14.44° C | 79% | 1019.5 hPa | 0 mm | - | - | - |
| 1778077530 | 13.89° C | 80% | 1019.5 hPa | 0 mm | - | - | - |
* Rain latest hour (hover to see other rain measurements)
** Current wind speed in m/s (hover to see current wind gust speed)